createdAt,value
2024-03-06T00:02:24.713Z,10.00
2024-03-06T00:04:51.570Z,9.73
2024-03-06T00:07:18.302Z,10.35
2024-03-06T00:09:45.860Z,10.68
2024-03-06T00:12:12.561Z,10.43
2024-03-06T00:14:40.517Z,10.63
2024-03-06T00:17:08.327Z,10.40
2024-03-06T00:19:35.412Z,10.73
2024-03-06T00:22:02.423Z,10.05
2024-03-06T00:24:29.326Z,10.70
2024-03-06T00:26:56.006Z,10.98
2024-03-06T00:29:22.604Z,10.98
2024-03-06T00:31:50.547Z,12.07
2024-03-06T00:34:17.191Z,12.40
2024-03-06T00:36:44.726Z,12.70
2024-03-06T00:39:11.477Z,12.82
2024-03-06T00:41:38.282Z,12.32
2024-03-06T00:44:05.138Z,12.73
2024-03-06T00:46:31.724Z,11.38
2024-03-06T00:48:59.718Z,11.60
2024-03-06T00:51:36.629Z,10.52
2024-03-06T00:54:08.315Z,11.70
2024-03-06T00:56:38.556Z,10.68
2024-03-06T00:59:05.192Z,10.55
2024-03-06T01:01:31.867Z,11.20
2024-03-06T01:03:59.828Z,11.07
2024-03-06T01:06:26.372Z,9.95
2024-03-06T01:08:53.035Z,10.80
2024-03-06T01:11:19.674Z,10.85
2024-03-06T01:13:46.368Z,10.93
2024-03-06T01:16:13.010Z,10.10
2024-03-06T01:18:39.583Z,10.55
2024-03-06T01:21:07.533Z,10.52
2024-03-06T01:23:34.162Z,10.10
2024-03-06T01:26:00.830Z,10.82
2024-03-06T01:28:27.385Z,10.93
2024-03-06T01:30:54.103Z,9.88
2024-03-06T01:33:20.819Z,9.80
2024-03-06T01:35:47.445Z,10.02
2024-03-06T01:38:16.985Z,10.95
2024-03-06T01:40:44.650Z,9.45
2024-03-06T01:43:20.358Z,10.20
2024-03-06T01:45:48.174Z,9.02
2024-03-06T01:48:15.181Z,9.02
2024-03-06T01:50:42.036Z,9.52
2024-03-06T01:53:09.296Z,9.18
2024-03-06T01:55:37.437Z,9.35
2024-03-06T01:58:04.779Z,8.82
2024-03-06T02:00:31.519Z,9.90
2024-03-06T02:02:58.114Z,9.63
2024-03-06T02:05:24.769Z,8.90
2024-03-06T02:07:53.949Z,9.20
2024-03-06T02:10:20.549Z,9.40
2024-03-06T02:12:50.015Z,9.60
2024-03-06T02:15:16.854Z,8.40
2024-03-06T02:17:43.480Z,9.32
2024-03-06T02:20:13.513Z,9.43
2024-03-06T02:22:41.699Z,8.90
2024-03-06T02:25:08.492Z,8.90
2024-03-06T02:27:35.088Z,9.65
2024-03-06T02:30:01.647Z,9.55
2024-03-06T02:32:28.442Z,9.55
2024-03-06T02:34:55.031Z,9.90
2024-03-06T02:37:21.677Z,8.80
2024-03-06T02:39:49.709Z,9.50
2024-03-06T02:42:16.312Z,9.02
2024-03-06T02:44:42.913Z,8.75
2024-03-06T02:47:09.769Z,8.93
2024-03-06T02:49:36.520Z,8.82
2024-03-06T02:52:03.527Z,9.10
2024-03-06T02:54:30.335Z,8.95
2024-03-06T02:56:58.343Z,8.65
2024-03-06T02:59:25.456Z,8.90
2024-03-06T03:01:52.003Z,10.07
2024-03-06T03:04:19.457Z,9.27
2024-03-06T03:06:45.966Z,9.15
2024-03-06T03:09:13.054Z,8.93
2024-03-06T03:11:39.850Z,8.15
2024-03-06T03:14:07.959Z,8.43
2024-03-06T03:16:34.732Z,8.35
2024-03-06T03:19:01.431Z,7.78
2024-03-06T03:21:27.994Z,7.95
2024-03-06T03:23:54.620Z,8.48
2024-03-06T03:26:21.887Z,9.23
2024-03-06T03:28:49.676Z,8.18
2024-03-06T03:31:17.640Z,8.88
2024-03-06T03:33:44.563Z,8.35
2024-03-06T03:36:11.216Z,7.72
2024-03-06T03:38:41.135Z,7.32
2024-03-06T03:41:08.971Z,7.20
2024-03-06T03:43:35.611Z,7.53
2024-03-06T03:46:02.180Z,8.00
2024-03-06T03:48:30.079Z,8.27
2024-03-06T03:50:56.668Z,8.85
2024-03-06T03:53:23.393Z,9.20
2024-03-06T03:55:49.972Z,7.70
2024-03-06T03:58:16.563Z,7.90
2024-03-06T04:00:43.670Z,7.57
2024-03-06T04:03:10.188Z,8.13
2024-03-06T04:05:38.182Z,8.20
2024-03-06T04:08:07.529Z,8.13
2024-03-06T04:10:34.874Z,7.88
2024-03-06T04:13:01.596Z,8.27
2024-03-06T04:15:28.251Z,9.57
2024-03-06T04:17:54.876Z,9.15
2024-03-06T04:20:21.484Z,9.30
2024-03-06T04:22:51.947Z,9.88
2024-03-06T04:25:19.119Z,10.13
2024-03-06T04:27:45.952Z,10.00
2024-03-06T04:30:15.959Z,9.55
2024-03-06T04:32:42.585Z,9.80
2024-03-06T04:35:12.961Z,9.68
2024-03-06T04:37:40.210Z,9.40
2024-03-06T04:40:09.769Z,9.23
2024-03-06T04:42:39.365Z,10.73
2024-03-06T04:45:12.193Z,10.85
2024-03-06T04:47:39.102Z,11.20
2024-03-06T04:50:09.581Z,11.63
2024-03-06T04:52:36.298Z,11.38
2024-03-06T04:55:04.144Z,10.80
2024-03-06T04:57:32.077Z,12.27
2024-03-06T04:59:59.595Z,10.98
2024-03-06T05:59:49.621Z,9.07
2024-03-06T06:02:17.578Z,9.82
2024-03-06T06:04:51.746Z,10.30
2024-03-06T06:07:26.945Z,9.98
2024-03-06T06:09:53.546Z,9.88
2024-03-06T06:12:20.096Z,10.07
2024-03-06T06:14:46.616Z,9.77
2024-03-06T06:17:16.619Z,9.40
2024-03-06T06:19:45.059Z,9.85
2024-03-06T06:22:13.525Z,9.60
2024-03-06T06:24:40.257Z,9.05
2024-03-06T06:27:06.845Z,9.65
2024-03-06T06:29:33.516Z,10.18
2024-03-06T06:32:00.134Z,9.30
2024-03-06T06:34:29.708Z,9.95
2024-03-06T06:36:57.629Z,10.18
2024-03-06T06:39:24.231Z,9.48
2024-03-06T06:41:50.830Z,10.68
2024-03-06T06:44:17.495Z,9.63
2024-03-06T06:46:44.106Z,9.77
2024-03-06T06:49:10.723Z,11.02
2024-03-06T06:51:37.329Z,10.75
2024-03-06T06:54:05.445Z,10.80
2024-03-06T06:56:32.279Z,10.20
2024-03-06T06:58:59.059Z,11.90
2024-03-06T07:01:25.760Z,13.07
2024-03-06T07:03:53.071Z,11.73
2024-03-06T07:06:19.688Z,11.80
2024-03-06T07:08:46.406Z,12.40
2024-03-06T07:11:14.537Z,11.77
2024-03-06T07:13:41.212Z,12.27
2024-03-06T07:16:08.252Z,12.45
2024-03-06T07:18:34.945Z,11.63
2024-03-06T07:21:02.028Z,11.93
2024-03-06T07:23:28.625Z,11.63
2024-03-06T07:25:55.638Z,9.70
2024-03-06T07:28:23.568Z,10.68
2024-03-06T07:30:50.133Z,10.48
2024-03-06T07:33:16.736Z,10.13
2024-03-06T07:35:43.343Z,10.27
2024-03-06T07:38:10.989Z,9.63
2024-03-06T07:40:37.582Z,10.35
2024-03-06T07:43:05.331Z,9.52
2024-03-06T07:45:33.328Z,9.18
2024-03-06T07:47:59.962Z,8.75
2024-03-06T07:50:27.628Z,8.80
2024-03-06T07:52:55.843Z,8.25
2024-03-06T07:55:23.155Z,8.05
2024-03-06T07:57:49.779Z,8.80
2024-03-06T08:00:16.984Z,8.73
2024-03-06T08:02:44.967Z,8.43
2024-03-06T08:05:13.567Z,7.55
2024-03-06T08:07:42.967Z,7.68
2024-03-06T08:10:10.599Z,8.18
2024-03-06T08:12:37.240Z,8.40
2024-03-06T08:15:04.370Z,8.27
2024-03-06T08:17:31.019Z,7.57
2024-03-06T08:19:59.004Z,6.97
2024-03-06T08:22:25.528Z,6.63
2024-03-06T08:24:52.136Z,6.47
2024-03-06T08:27:18.719Z,6.18
2024-03-06T08:29:45.419Z,5.90
2024-03-06T08:32:12.157Z,5.25
2024-03-06T08:34:38.807Z,5.55
2024-03-06T08:37:07.278Z,5.35
2024-03-06T08:39:33.931Z,5.63
2024-03-06T08:42:01.483Z,5.88
2024-03-06T08:44:29.250Z,5.05
2024-03-06T08:46:55.898Z,5.32
2024-03-06T08:49:22.558Z,5.30
2024-03-06T08:51:49.140Z,5.07
2024-03-06T08:54:17.065Z,4.88
2024-03-06T08:56:44.885Z,4.88
2024-03-06T08:59:11.501Z,5.20
2024-03-06T09:01:38.093Z,4.50
2024-03-06T09:04:04.820Z,4.63
2024-03-06T09:06:31.415Z,5.65
2024-03-06T09:08:57.979Z,4.40
2024-03-06T09:11:26.038Z,5.00
2024-03-06T09:13:52.671Z,4.80
2024-03-06T09:16:19.419Z,4.45
2024-03-06T09:18:45.973Z,4.32
2024-03-06T09:21:12.533Z,4.57
2024-03-06T09:23:39.219Z,5.13
2024-03-06T09:26:07.088Z,5.40
2024-03-06T09:28:35.206Z,5.10
2024-03-06T09:31:02.447Z,5.30
2024-03-06T09:35:58.542Z,5.97
2024-03-06T09:38:25.251Z,7.97
2024-03-06T09:40:52.966Z,5.57
2024-03-06T09:43:19.590Z,6.50
2024-03-06T09:45:49.782Z,6.25
2024-03-06T09:48:17.686Z,6.25
2024-03-06T09:50:46.488Z,6.05
2024-03-06T09:53:13.902Z,5.70
2024-03-06T09:55:42.082Z,6.75
2024-03-06T09:58:09.686Z,5.88
2024-03-06T10:00:36.863Z,5.65
2024-03-06T10:05:36.392Z,5.97
2024-03-06T10:08:03.385Z,6.15
2024-03-06T10:10:29.974Z,5.25
2024-03-06T10:12:58.502Z,4.93
2024-03-06T10:15:27.644Z,5.30
2024-03-06T10:17:54.363Z,4.60
2024-03-06T10:20:23.660Z,4.72
2024-03-06T10:22:53.942Z,4.68
2024-03-06T10:25:22.809Z,4.30
2024-03-06T10:28:04.337Z,5.32
2024-03-06T10:30:31.852Z,3.67
2024-03-06T10:32:59.445Z,3.35
2024-03-06T10:35:27.453Z,3.50
2024-03-06T10:37:55.707Z,4.13
2024-03-06T10:40:24.032Z,3.90
2024-03-06T10:42:50.748Z,4.60
2024-03-06T10:45:17.830Z,3.78
2024-03-06T10:47:51.413Z,4.35
2024-03-06T10:50:19.812Z,3.60
2024-03-06T10:52:48.461Z,4.40
2024-03-06T10:55:16.830Z,4.47
2024-03-06T10:57:44.094Z,4.18
2024-03-06T11:02:39.056Z,4.55
2024-03-06T11:05:06.711Z,4.90
2024-03-06T11:07:33.931Z,4.05
2024-03-06T11:10:02.568Z,4.68
2024-03-06T11:12:36.971Z,4.75
2024-03-06T11:15:10.323Z,4.90
2024-03-06T11:17:37.672Z,4.35
2024-03-06T11:20:26.772Z,4.70
2024-03-06T11:23:11.993Z,3.97
2024-03-06T11:26:05.439Z,4.20
2024-03-06T11:28:33.932Z,3.83
2024-03-06T11:31:02.545Z,3.67
2024-03-06T11:33:39.617Z,4.43
2024-03-06T11:36:19.983Z,3.70
2024-03-06T11:38:53.999Z,3.63
2024-03-06T11:41:25.758Z,3.75
2024-03-06T11:43:56.933Z,3.65
2024-03-06T11:46:24.522Z,3.22
2024-03-06T11:48:55.121Z,4.00
2024-03-06T11:51:22.224Z,2.92
2024-03-06T11:53:50.764Z,3.58
2024-03-06T11:56:18.538Z,3.10
2024-03-06T11:58:49.300Z,3.10
2024-03-06T12:01:16.463Z,2.90
2024-03-06T12:03:43.408Z,3.05
2024-03-06T12:06:10.456Z,3.47
2024-03-06T12:08:39.861Z,3.78
2024-03-06T12:11:06.703Z,3.92
2024-03-06T12:13:33.647Z,4.00
2024-03-06T12:16:05.245Z,3.65
2024-03-06T12:18:31.901Z,3.65
2024-03-06T12:21:01.753Z,3.05
2024-03-06T12:23:28.401Z,3.35
2024-03-06T12:28:31.811Z,3.42
2024-03-06T12:31:02.095Z,3.85
2024-03-06T12:33:30.133Z,3.80
2024-03-06T12:36:04.150Z,3.50
2024-03-06T12:38:30.978Z,3.50
2024-03-06T12:40:57.602Z,3.60
2024-03-06T12:43:25.240Z,4.00
2024-03-06T12:45:52.062Z,3.53
2024-03-06T12:48:18.723Z,3.42
2024-03-06T12:50:52.323Z,3.88
2024-03-06T12:53:19.855Z,3.70
2024-03-06T12:55:46.929Z,3.30
2024-03-06T12:58:13.636Z,3.63
2024-03-06T13:00:40.452Z,3.38
2024-03-06T13:03:07.777Z,3.38
2024-03-06T13:05:34.532Z,3.28
2024-03-06T13:08:02.732Z,3.47
2024-03-06T13:10:29.460Z,3.55
2024-03-06T13:12:56.110Z,3.20
2024-03-06T13:15:23.159Z,3.67
2024-03-06T13:17:49.944Z,3.55
2024-03-06T13:20:16.987Z,3.25
2024-03-06T13:22:45.194Z,3.58
2024-03-06T13:25:13.177Z,3.38
2024-03-06T13:27:39.692Z,3.53
2024-03-06T13:30:09.350Z,3.47
2024-03-06T13:32:36.313Z,3.50
2024-03-06T13:35:03.394Z,3.45
2024-03-06T13:37:30.143Z,3.15
2024-03-06T13:40:01.572Z,3.10
2024-03-06T13:42:29.741Z,4.10
2024-03-06T13:44:56.887Z,3.30
2024-03-06T13:49:50.422Z,3.30
2024-03-06T13:52:21.056Z,3.33
2024-03-06T13:54:51.078Z,3.35
2024-03-06T13:57:17.639Z,2.95
2024-03-06T13:59:45.770Z,3.10
2024-03-06T14:02:12.474Z,2.83
2024-03-06T14:04:39.088Z,3.15
2024-03-06T14:07:05.767Z,2.85
2024-03-06T14:09:32.424Z,2.80
2024-03-06T14:11:59.419Z,2.53
2024-03-06T14:14:26.438Z,3.45
2024-03-06T14:16:54.479Z,2.80
2024-03-06T14:19:22.669Z,3.13
2024-03-06T14:21:49.234Z,2.97
2024-03-06T14:24:15.967Z,3.05
2024-03-06T14:26:42.957Z,2.72
2024-03-06T14:29:10.790Z,3.20
2024-03-06T14:31:37.732Z,2.70
2024-03-06T14:34:06.926Z,2.92
2024-03-06T14:36:35.258Z,3.38
2024-03-06T14:39:02.089Z,2.72
2024-03-06T14:41:28.825Z,2.70
2024-03-06T14:43:55.569Z,3.10
2024-03-06T14:46:22.271Z,3.30
2024-03-06T14:48:48.969Z,3.00
2024-03-06T14:51:16.992Z,2.80
2024-03-06T14:53:43.804Z,2.75
2024-03-06T14:56:11.926Z,2.70
2024-03-06T14:58:39.066Z,2.63
2024-03-06T15:01:06.167Z,2.65
2024-03-06T15:03:32.898Z,2.90
2024-03-06T15:05:59.572Z,3.00
2024-03-06T15:08:27.630Z,3.40
2024-03-06T15:10:55.192Z,2.80
2024-03-06T15:13:23.884Z,3.60
2024-03-06T15:15:51.693Z,3.40
2024-03-06T15:18:18.850Z,3.63
2024-03-06T15:20:45.825Z,3.30
2024-03-06T15:23:12.672Z,2.97
2024-03-06T15:25:40.787Z,3.00
2024-03-06T15:28:07.565Z,2.83
2024-03-06T15:30:35.641Z,2.80
2024-03-06T15:33:04.189Z,2.97
2024-03-06T15:35:31.061Z,2.45
2024-03-06T15:37:57.690Z,2.45
2024-03-06T15:40:24.373Z,2.33
2024-03-06T15:42:54.250Z,2.63
2024-03-06T15:45:23.258Z,3.15
2024-03-06T15:47:49.953Z,2.60
2024-03-06T15:50:16.780Z,2.25
2024-03-06T15:52:43.467Z,2.55
2024-03-06T15:55:10.778Z,3.28
2024-03-06T15:57:37.440Z,2.78
2024-03-06T16:00:10.505Z,2.85
2024-03-06T16:02:37.144Z,2.80
2024-03-06T16:05:04.124Z,2.85
2024-03-06T16:07:34.520Z,2.83
2024-03-06T16:10:02.458Z,3.00
2024-03-06T16:12:29.066Z,2.60
2024-03-06T16:14:55.785Z,3.33
2024-03-06T16:17:23.731Z,2.90
2024-03-06T16:19:50.340Z,3.22
2024-03-06T16:22:16.857Z,3.28
2024-03-06T16:24:44.004Z,3.17
2024-03-06T16:29:37.143Z,3.33
2024-03-06T16:32:04.451Z,3.65
2024-03-06T16:34:33.700Z,2.67
2024-03-06T16:37:00.731Z,3.20
2024-03-06T16:39:27.341Z,3.08
2024-03-06T16:41:53.961Z,3.60
2024-03-06T16:44:21.970Z,3.80
2024-03-06T16:46:50.095Z,3.25
2024-03-06T16:49:16.611Z,3.97
2024-03-06T16:51:44.589Z,3.42
2024-03-06T16:54:11.127Z,3.40
2024-03-06T16:56:39.309Z,3.45
2024-03-06T16:59:08.193Z,3.70
2024-03-06T17:01:34.925Z,3.75
2024-03-06T17:04:01.591Z,4.10
2024-03-06T17:06:32.232Z,4.00
2024-03-06T17:09:00.296Z,3.85
2024-03-06T17:11:27.002Z,4.95
2024-03-06T17:13:53.735Z,4.40
2024-03-06T17:16:20.319Z,5.00
2024-03-06T17:18:46.986Z,7.10
2024-03-06T17:21:13.812Z,8.80
2024-03-06T17:23:40.416Z,7.10
2024-03-06T17:26:11.711Z,6.63
2024-03-06T17:28:41.158Z,6.43
2024-03-06T17:31:08.365Z,6.35
2024-03-06T17:36:01.482Z,7.40
2024-03-06T17:38:29.081Z,7.63
2024-03-06T17:40:55.683Z,7.75
2024-03-06T17:43:23.618Z,7.53
2024-03-06T17:45:50.463Z,7.45
2024-03-06T17:48:17.170Z,7.85
2024-03-06T17:50:45.923Z,7.35
2024-03-06T17:53:14.211Z,8.00
2024-03-06T17:55:40.890Z,8.93
2024-03-06T17:58:07.950Z,8.13
2024-03-06T18:00:35.880Z,8.63
2024-03-06T18:03:02.570Z,9.85
2024-03-06T18:05:29.208Z,9.77
2024-03-06T18:07:56.671Z,8.98
2024-03-06T18:10:24.051Z,9.60
2024-03-06T18:15:17.161Z,10.50
2024-03-06T18:17:45.177Z,10.68
2024-03-06T18:20:12.595Z,12.65
2024-03-06T18:22:39.242Z,10.95
2024-03-06T18:25:07.974Z,10.93
2024-03-06T18:27:35.008Z,11.95
2024-03-06T18:30:01.641Z,11.95
2024-03-06T18:32:29.888Z,10.48
2024-03-06T18:34:59.025Z,11.57
2024-03-06T18:37:26.040Z,10.82
2024-03-06T18:39:54.433Z,11.73
2024-03-06T18:42:22.266Z,11.82
2024-03-06T18:44:49.795Z,13.02
2024-03-06T18:47:16.788Z,12.07
2024-03-06T18:49:43.434Z,14.25
2024-03-06T18:52:11.670Z,12.32
2024-03-06T18:54:40.591Z,13.20
2024-03-06T18:57:07.619Z,13.55
2024-03-06T18:59:34.546Z,14.50
2024-03-06T19:02:01.398Z,14.32
2024-03-06T19:04:28.004Z,14.07
2024-03-06T19:06:54.614Z,15.38
2024-03-06T19:09:22.616Z,15.25
2024-03-06T19:11:51.471Z,16.73
2024-03-06T19:14:18.299Z,18.17
2024-03-06T19:16:45.044Z,17.98
2024-03-06T19:19:11.661Z,20.60
2024-03-06T19:21:38.407Z,20.02
2024-03-06T19:24:05.371Z,21.83
2024-03-06T19:26:36.645Z,23.30
2024-03-06T19:29:03.544Z,22.67
2024-03-06T19:31:31.966Z,22.33
2024-03-06T19:33:59.515Z,23.20
2024-03-06T19:36:26.275Z,25.83
2024-03-06T19:38:52.855Z,24.70
2024-03-06T19:41:19.604Z,24.10
2024-03-06T19:43:47.575Z,25.45
2024-03-06T19:46:14.122Z,25.55
2024-03-06T19:48:41.532Z,25.85
2024-03-06T19:51:09.221Z,24.92
2024-03-06T19:53:35.980Z,24.92
2024-03-06T19:56:03.046Z,24.95
2024-03-06T19:58:29.618Z,26.23
2024-03-06T20:00:57.669Z,24.33
2024-03-06T20:03:24.194Z,25.55
2024-03-06T20:05:50.898Z,27.52
2024-03-06T20:08:17.758Z,26.33
2024-03-06T20:10:44.563Z,25.63
2024-03-06T20:13:11.224Z,26.00
2024-03-06T20:15:37.801Z,30.13
2024-03-06T20:18:09.075Z,33.72
2024-03-06T20:20:35.748Z,30.88
2024-03-06T20:23:08.093Z,29.50
2024-03-06T20:25:35.478Z,28.63
2024-03-06T20:28:02.213Z,29.42
2024-03-06T20:30:28.852Z,27.65
2024-03-06T20:32:55.737Z,27.05
2024-03-06T20:35:24.910Z,28.95
2024-03-06T20:37:51.767Z,27.08
2024-03-06T20:40:18.568Z,29.60
2024-03-06T20:42:45.980Z,29.40
2024-03-06T20:45:14.012Z,27.48
2024-03-06T20:47:44.033Z,28.02
2024-03-06T20:50:11.658Z,27.67
2024-03-06T20:52:40.978Z,26.23
2024-03-06T20:55:08.657Z,27.45
2024-03-06T20:57:35.231Z,27.63
2024-03-06T21:00:01.864Z,27.65
2024-03-06T21:02:28.436Z,27.73
2024-03-06T21:04:55.492Z,27.80
2024-03-06T21:07:22.349Z,27.27
2024-03-06T21:09:50.375Z,27.92
2024-03-06T21:12:17.179Z,26.25
2024-03-06T21:14:44.897Z,28.08
2024-03-06T21:17:11.727Z,27.50
2024-03-06T21:19:38.643Z,29.75
2024-03-06T21:22:05.902Z,26.15
2024-03-06T21:27:03.250Z,26.35
2024-03-06T21:29:30.807Z,28.33
2024-03-06T21:31:57.626Z,27.15
2024-03-06T21:34:24.253Z,27.08
2024-03-06T21:36:50.915Z,28.52
2024-03-06T21:39:17.442Z,29.35
2024-03-06T21:41:44.214Z,28.92
2024-03-06T21:44:12.255Z,29.05
2024-03-06T21:46:38.962Z,28.55
2024-03-06T21:49:05.590Z,28.83
2024-03-06T21:51:32.129Z,31.63
2024-03-06T21:53:59.639Z,30.35
2024-03-06T21:56:26.318Z,31.15
2024-03-06T21:58:52.968Z,27.83
2024-03-06T22:01:21.901Z,28.75
2024-03-06T22:03:48.544Z,29.70
2024-03-06T22:06:15.287Z,30.65
2024-03-06T22:08:43.609Z,29.10
2024-03-06T22:11:12.555Z,27.50
2024-03-06T22:13:39.386Z,28.80
2024-03-06T22:16:06.238Z,27.75
2024-03-06T22:18:34.241Z,28.48
2024-03-06T22:21:00.898Z,29.27
2024-03-06T22:23:29.953Z,27.70
2024-03-06T22:25:56.606Z,27.73
2024-03-06T22:28:23.245Z,30.38
2024-03-06T22:30:49.852Z,27.75
2024-03-06T22:33:16.469Z,27.27
2024-03-06T22:35:45.962Z,28.13
2024-03-06T22:38:12.974Z,27.08
2024-03-06T22:40:39.610Z,27.02
2024-03-06T22:43:06.441Z,30.48
2024-03-06T22:45:33.267Z,29.52
2024-03-06T22:48:00.108Z,27.25
2024-03-06T22:50:27.103Z,27.73
2024-03-06T22:52:55.071Z,26.73
2024-03-06T22:55:22.299Z,27.63
2024-03-06T22:57:48.915Z,27.23
2024-03-06T23:00:30.230Z,27.67
2024-03-06T23:02:57.758Z,26.08
2024-03-06T23:05:25.317Z,28.35
2024-03-06T23:07:52.314Z,27.85
2024-03-06T23:10:20.731Z,28.90
2024-03-06T23:12:47.958Z,27.10
2024-03-06T23:15:15.980Z,27.80
2024-03-06T23:17:45.775Z,25.88
2024-03-06T23:20:15.129Z,26.58
2024-03-06T23:22:42.372Z,28.10
2024-03-06T23:25:09.917Z,26.88
2024-03-06T23:27:37.983Z,28.02
2024-03-06T23:30:08.234Z,26.58
2024-03-06T23:32:35.673Z,28.58
2024-03-06T23:35:04.779Z,27.52
2024-03-06T23:37:31.726Z,27.98
2024-03-06T23:39:58.281Z,26.38
2024-03-06T23:42:24.820Z,27.27
2024-03-06T23:44:52.749Z,25.40
2024-03-06T23:47:19.377Z,27.88
2024-03-06T23:49:45.904Z,27.83
2024-03-06T23:52:16.790Z,28.27
2024-03-06T23:54:43.397Z,28.42
2024-03-06T23:57:10.228Z,27.48
2024-03-06T23:59:36.864Z,28.25
